sensor_id;sensor_type;location;lat;lon;timestamp;P1;durP1;ratioP1;P2;durP2;ratioP2
75616;SDS011;64200;55.426;37.758;2023-04-24T00:04:55;5.30;;;3.97;;
75616;SDS011;64200;55.426;37.758;2023-04-24T00:09:56;7.25;;;4.60;;
75616;SDS011;64200;55.426;37.758;2023-04-24T00:14:56;7.30;;;4.40;;
75616;SDS011;64200;55.426;37.758;2023-04-24T00:19:57;5.13;;;3.63;;
75616;SDS011;64200;55.426;37.758;2023-04-24T00:25:04;6.95;;;4.88;;
75616;SDS011;64200;55.426;37.758;2023-04-24T00:30:06;9.38;;;4.43;;
75616;SDS011;64200;55.426;37.758;2023-04-24T00:35:07;6.93;;;4.07;;
75616;SDS011;64200;55.426;37.758;2023-04-24T00:40:07;10.05;;;4.88;;
75616;SDS011;64200;55.426;37.758;2023-04-24T00:45:08;9.25;;;5.63;;
75616;SDS011;64200;55.426;37.758;2023-04-24T00:50:10;6.90;;;5.03;;
75616;SDS011;64200;55.426;37.758;2023-04-24T00:55:11;9.23;;;6.38;;
75616;SDS011;64200;55.426;37.758;2023-04-24T01:00:12;8.70;;;6.17;;
75616;SDS011;64200;55.426;37.758;2023-04-24T01:05:14;9.45;;;5.50;;
75616;SDS011;64200;55.426;37.758;2023-04-24T01:10:15;8.68;;;6.65;;
75616;SDS011;64200;55.426;37.758;2023-04-24T01:15:17;10.30;;;6.57;;
75616;SDS011;64200;55.426;37.758;2023-04-24T01:20:18;9.40;;;5.63;;
75616;SDS011;64200;55.426;37.758;2023-04-24T01:25:19;9.52;;;5.57;;
75616;SDS011;64200;55.426;37.758;2023-04-24T01:30:19;9.43;;;4.63;;
75616;SDS011;64200;55.426;37.758;2023-04-24T01:35:20;6.50;;;4.83;;
75616;SDS011;64200;55.426;37.758;2023-04-24T01:40:21;8.68;;;6.72;;
75616;SDS011;64200;55.426;37.758;2023-04-24T01:45:21;7.22;;;5.60;;
75616;SDS011;64200;55.426;37.758;2023-04-24T01:50:22;9.57;;;5.93;;
75616;SDS011;64200;55.426;37.758;2023-04-24T01:55:22;8.48;;;6.30;;
75616;SDS011;64200;55.426;37.758;2023-04-24T02:00:23;11.27;;;6.55;;
75616;SDS011;64200;55.426;37.758;2023-04-24T02:05:27;7.20;;;5.40;;
75616;SDS011;64200;55.426;37.758;2023-04-24T02:10:27;9.45;;;6.28;;
75616;SDS011;64200;55.426;37.758;2023-04-24T02:15:28;7.30;;;5.80;;
75616;SDS011;64200;55.426;37.758;2023-04-24T02:20:28;7.20;;;5.65;;
75616;SDS011;64200;55.426;37.758;2023-04-24T02:25:29;10.90;;;6.57;;
75616;SDS011;64200;55.426;37.758;2023-04-24T02:30:30;10.35;;;6.50;;
75616;SDS011;64200;55.426;37.758;2023-04-24T02:35:30;10.88;;;6.47;;
75616;SDS011;64200;55.426;37.758;2023-04-24T02:40:31;9.20;;;5.38;;
75616;SDS011;64200;55.426;37.758;2023-04-24T02:45:32;9.35;;;5.78;;
75616;SDS011;64200;55.426;37.758;2023-04-24T02:50:34;8.75;;;5.88;;
75616;SDS011;64200;55.426;37.758;2023-04-24T02:55:35;8.02;;;5.18;;
75616;SDS011;64200;55.426;37.758;2023-04-24T03:00:36;6.95;;;5.18;;
75616;SDS011;64200;55.426;37.758;2023-04-24T03:05:36;8.57;;;5.18;;
75616;SDS011;64200;55.426;37.758;2023-04-24T03:10:37;9.50;;;5.65;;
75616;SDS011;64200;55.426;37.758;2023-04-24T03:15:37;8.20;;;5.83;;
75616;SDS011;64200;55.426;37.758;2023-04-24T03:20:38;7.57;;;4.70;;
75616;SDS011;64200;55.426;37.758;2023-04-24T03:25:38;9.30;;;5.60;;
75616;SDS011;64200;55.426;37.758;2023-04-24T03:30:39;8.05;;;4.97;;
75616;SDS011;64200;55.426;37.758;2023-04-24T03:35:40;8.38;;;4.97;;
75616;SDS011;64200;55.426;37.758;2023-04-24T03:40:41;7.68;;;4.70;;
75616;SDS011;64200;55.426;37.758;2023-04-24T03:45:41;8.50;;;4.72;;
75616;SDS011;64200;55.426;37.758;2023-04-24T03:50:42;11.20;;;5.38;;
75616;SDS011;64200;55.426;37.758;2023-04-24T03:55:43;6.63;;;4.43;;
75616;SDS011;64200;55.426;37.758;2023-04-24T04:00:43;8.40;;;3.78;;
75616;SDS011;64200;55.426;37.758;2023-04-24T04:05:44;9.70;;;3.92;;
75616;SDS011;64200;55.426;37.758;2023-04-24T04:10:45;6.55;;;4.18;;
75616;SDS011;64200;55.426;37.758;2023-04-24T04:15:45;8.87;;;4.20;;
75616;SDS011;64200;55.426;37.758;2023-04-24T04:20:46;8.55;;;4.88;;
75616;SDS011;64200;55.426;37.758;2023-04-24T04:25:47;6.28;;;4.07;;
75616;SDS011;64200;55.426;37.758;2023-04-24T04:30:47;5.70;;;3.60;;
75616;SDS011;64200;55.426;37.758;2023-04-24T04:35:48;8.90;;;3.90;;
75616;SDS011;64200;55.426;37.758;2023-04-24T04:40:49;6.03;;;4.00;;
75616;SDS011;64200;55.426;37.758;2023-04-24T04:45:50;9.10;;;4.70;;
75616;SDS011;64200;55.426;37.758;2023-04-24T04:50:52;8.10;;;4.03;;
75616;SDS011;64200;55.426;37.758;2023-04-24T04:55:52;5.95;;;3.58;;
75616;SDS011;64200;55.426;37.758;2023-04-24T05:00:53;9.27;;;4.30;;
75616;SDS011;64200;55.426;37.758;2023-04-24T05:05:53;5.90;;;3.67;;
75616;SDS011;64200;55.426;37.758;2023-04-24T05:10:54;5.87;;;3.93;;
75616;SDS011;64200;55.426;37.758;2023-04-24T05:15:55;7.35;;;4.13;;
75616;SDS011;64200;55.426;37.758;2023-04-24T05:20:55;7.28;;;4.07;;
75616;SDS011;64200;55.426;37.758;2023-04-24T05:25:56;4.47;;;3.55;;
75616;SDS011;64200;55.426;37.758;2023-04-24T05:30:57;4.45;;;3.33;;
75616;SDS011;64200;55.426;37.758;2023-04-24T05:35:59;9.00;;;4.03;;
75616;SDS011;64200;55.426;37.758;2023-04-24T05:41:00;5.13;;;3.58;;
75616;SDS011;64200;55.426;37.758;2023-04-24T05:46:01;7.85;;;3.28;;
75616;SDS011;64200;55.426;37.758;2023-04-24T05:51:02;5.05;;;3.33;;
75616;SDS011;64200;55.426;37.758;2023-04-24T05:56:02;4.00;;;3.03;;
75616;SDS011;64200;55.426;37.758;2023-04-24T06:01:03;6.22;;;3.35;;
75616;SDS011;64200;55.426;37.758;2023-04-24T06:06:05;9.95;;;4.00;;
75616;SDS011;64200;55.426;37.758;2023-04-24T06:11:06;5.82;;;3.28;;
75616;SDS011;64200;55.426;37.758;2023-04-24T06:16:07;5.97;;;3.15;;
75616;SDS011;64200;55.426;37.758;2023-04-24T06:21:07;5.43;;;3.40;;
75616;SDS011;64200;55.426;37.758;2023-04-24T06:26:08;5.45;;;3.15;;
75616;SDS011;64200;55.426;37.758;2023-04-24T06:31:08;3.22;;;2.47;;
75616;SDS011;64200;55.426;37.758;2023-04-24T06:36:09;4.80;;;2.90;;
75616;SDS011;64200;55.426;37.758;2023-04-24T06:41:10;8.90;;;2.92;;
75616;SDS011;64200;55.426;37.758;2023-04-24T06:46:11;6.88;;;4.00;;
75616;SDS011;64200;55.426;37.758;2023-04-24T06:51:12;6.38;;;2.83;;
75616;SDS011;64200;55.426;37.758;2023-04-24T06:56:12;4.53;;;2.67;;
75616;SDS011;64200;55.426;37.758;2023-04-24T07:01:13;5.03;;;2.95;;
75616;SDS011;64200;55.426;37.758;2023-04-24T07:06:13;3.72;;;2.80;;
75616;SDS011;64200;55.426;37.758;2023-04-24T07:11:16;4.28;;;3.28;;
75616;SDS011;64200;55.426;37.758;2023-04-24T07:16:16;3.72;;;2.95;;
75616;SDS011;64200;55.426;37.758;2023-04-24T07:21:17;4.55;;;2.40;;
75616;SDS011;64200;55.426;37.758;2023-04-24T07:26:18;3.42;;;2.70;;
75616;SDS011;64200;55.426;37.758;2023-04-24T07:31:19;6.15;;;2.58;;
75616;SDS011;64200;55.426;37.758;2023-04-24T07:36:19;3.45;;;2.97;;
75616;SDS011;64200;55.426;37.758;2023-04-24T07:41:20;4.68;;;3.15;;
75616;SDS011;64200;55.426;37.758;2023-04-24T07:46:21;6.00;;;3.25;;
75616;SDS011;64200;55.426;37.758;2023-04-24T07:51:23;4.10;;;2.97;;
75616;SDS011;64200;55.426;37.758;2023-04-24T07:56:23;5.45;;;2.97;;
75616;SDS011;64200;55.426;37.758;2023-04-24T08:01:24;4.72;;;3.28;;
75616;SDS011;64200;55.426;37.758;2023-04-24T08:06:25;4.47;;;3.08;;
75616;SDS011;64200;55.426;37.758;2023-04-24T08:11:30;5.07;;;3.30;;
75616;SDS011;64200;55.426;37.758;2023-04-24T08:16:31;4.32;;;3.42;;
75616;SDS011;64200;55.426;37.758;2023-04-24T08:21:33;6.30;;;3.60;;
75616;SDS011;64200;55.426;37.758;2023-04-24T08:26:33;4.70;;;3.63;;
75616;SDS011;64200;55.426;37.758;2023-04-24T08:31:34;5.43;;;3.30;;
75616;SDS011;64200;55.426;37.758;2023-04-24T08:36:35;5.15;;;3.80;;
75616;SDS011;64200;55.426;37.758;2023-04-24T08:41:36;5.00;;;3.40;;
75616;SDS011;64200;55.426;37.758;2023-04-24T08:46:38;4.28;;;3.28;;
75616;SDS011;64200;55.426;37.758;2023-04-24T08:51:40;7.35;;;3.85;;
75616;SDS011;64200;55.426;37.758;2023-04-24T08:56:44;4.63;;;4.15;;
75616;SDS011;64200;55.426;37.758;2023-04-24T09:01:47;5.85;;;5.05;;
75616;SDS011;64200;55.426;37.758;2023-04-24T09:06:51;4.22;;;3.47;;
75616;SDS011;64200;55.426;37.758;2023-04-24T09:11:55;4.60;;;3.22;;
75616;SDS011;64200;55.426;37.758;2023-04-24T09:16:57;8.68;;;6.82;;
75616;SDS011;64200;55.426;37.758;2023-04-24T09:22:00;7.07;;;5.50;;
75616;SDS011;64200;55.426;37.758;2023-04-24T09:27:05;5.40;;;3.60;;
75616;SDS011;64200;55.426;37.758;2023-04-24T09:32:20;7.30;;;5.68;;
75616;SDS011;64200;55.426;37.758;2023-04-24T09:37:28;5.82;;;3.58;;
75616;SDS011;64200;55.426;37.758;2023-04-24T09:42:29;3.15;;;2.60;;
75616;SDS011;64200;55.426;37.758;2023-04-24T09:47:40;4.20;;;2.92;;
75616;SDS011;64200;55.426;37.758;2023-04-24T09:52:42;4.97;;;2.90;;
75616;SDS011;64200;55.426;37.758;2023-04-24T09:57:47;4.18;;;2.83;;
75616;SDS011;64200;55.426;37.758;2023-04-24T10:02:57;5.80;;;4.03;;
75616;SDS011;64200;55.426;37.758;2023-04-24T10:08:06;3.67;;;2.35;;
75616;SDS011;64200;55.426;37.758;2023-04-24T10:13:11;5.80;;;3.22;;
75616;SDS011;64200;55.426;37.758;2023-04-24T10:18:13;6.25;;;3.67;;
75616;SDS011;64200;55.426;37.758;2023-04-24T10:23:14;6.93;;;4.72;;
75616;SDS011;64200;55.426;37.758;2023-04-24T10:28:16;5.82;;;4.00;;
75616;SDS011;64200;55.426;37.758;2023-04-24T10:33:18;5.50;;;3.42;;
75616;SDS011;64200;55.426;37.758;2023-04-24T10:38:22;7.28;;;4.85;;
75616;SDS011;64200;55.426;37.758;2023-04-24T10:43:25;4.90;;;4.30;;
75616;SDS011;64200;55.426;37.758;2023-04-24T10:48:26;4.55;;;3.20;;
75616;SDS011;64200;55.426;37.758;2023-04-24T10:53:28;4.25;;;3.08;;
75616;SDS011;64200;55.426;37.758;2023-04-24T11:03:41;3.75;;;3.03;;
75616;SDS011;64200;55.426;37.758;2023-04-24T11:08:58;3.80;;;2.90;;
75616;SDS011;64200;55.426;37.758;2023-04-24T11:14:03;5.85;;;2.55;;
75616;SDS011;64200;55.426;37.758;2023-04-24T11:19:07;4.20;;;2.47;;
75616;SDS011;64200;55.426;37.758;2023-04-24T11:24:24;7.72;;;4.78;;
75616;SDS011;64200;55.426;37.758;2023-04-24T11:34:45;2.95;;;2.60;;
75616;SDS011;64200;55.426;37.758;2023-04-24T11:39:50;2.65;;;2.25;;
75616;SDS011;64200;55.426;37.758;2023-04-24T11:44:52;4.50;;;2.80;;
75616;SDS011;64200;55.426;37.758;2023-04-24T11:49:55;4.50;;;2.50;;
75616;SDS011;64200;55.426;37.758;2023-04-24T11:54:56;5.75;;;2.88;;
75616;SDS011;64200;55.426;37.758;2023-04-24T11:59:56;4.82;;;2.85;;
75616;SDS011;64200;55.426;37.758;2023-04-24T12:04:57;4.53;;;2.60;;
75616;SDS011;64200;55.426;37.758;2023-04-24T12:09:58;3.58;;;2.45;;
75616;SDS011;64200;55.426;37.758;2023-04-24T12:15:00;2.95;;;2.00;;
75616;SDS011;64200;55.426;37.758;2023-04-24T12:20:03;6.55;;;2.78;;
75616;SDS011;64200;55.426;37.758;2023-04-24T12:25:05;5.47;;;2.60;;
75616;SDS011;64200;55.426;37.758;2023-04-24T12:35:13;4.03;;;2.22;;
75616;SDS011;64200;55.426;37.758;2023-04-24T12:40:19;2.67;;;2.28;;
75616;SDS011;64200;55.426;37.758;2023-04-24T12:45:21;3.08;;;1.90;;
75616;SDS011;64200;55.426;37.758;2023-04-24T12:50:23;2.67;;;1.85;;
75616;SDS011;64200;55.426;37.758;2023-04-24T12:55:24;3.17;;;1.83;;
75616;SDS011;64200;55.426;37.758;2023-04-24T13:00:26;3.38;;;1.67;;
75616;SDS011;64200;55.426;37.758;2023-04-24T13:05:27;2.72;;;1.65;;
75616;SDS011;64200;55.426;37.758;2023-04-24T13:10:28;4.22;;;1.90;;
75616;SDS011;64200;55.426;37.758;2023-04-24T13:15:28;3.97;;;1.90;;
75616;SDS011;64200;55.426;37.758;2023-04-24T13:20:29;4.70;;;2.20;;
75616;SDS011;64200;55.426;37.758;2023-04-24T13:25:34;2.40;;;1.92;;
75616;SDS011;64200;55.426;37.758;2023-04-24T13:30:36;5.10;;;2.25;;
75616;SDS011;64200;55.426;37.758;2023-04-24T13:35:37;3.47;;;2.00;;
75616;SDS011;64200;55.426;37.758;2023-04-24T13:40:37;4.83;;;2.27;;
75616;SDS011;64200;55.426;37.758;2023-04-24T13:45:38;3.55;;;2.00;;
75616;SDS011;64200;55.426;37.758;2023-04-24T13:50:38;3.97;;;2.75;;
75616;SDS011;64200;55.426;37.758;2023-04-24T13:55:39;3.38;;;2.30;;
75616;SDS011;64200;55.426;37.758;2023-04-24T14:00:40;4.45;;;1.92;;
75616;SDS011;64200;55.426;37.758;2023-04-24T14:05:40;5.93;;;2.45;;
75616;SDS011;64200;55.426;37.758;2023-04-24T14:10:42;4.20;;;2.00;;
75616;SDS011;64200;55.426;37.758;2023-04-24T14:15:42;4.55;;;2.78;;
75616;SDS011;64200;55.426;37.758;2023-04-24T14:20:43;3.45;;;2.50;;
75616;SDS011;64200;55.426;37.758;2023-04-24T14:25:44;6.03;;;2.75;;
75616;SDS011;64200;55.426;37.758;2023-04-24T14:30:45;3.53;;;2.83;;
75616;SDS011;64200;55.426;37.758;2023-04-24T14:35:45;2.97;;;2.67;;
75616;SDS011;64200;55.426;37.758;2023-04-24T14:40:46;3.33;;;2.63;;
75616;SDS011;64200;55.426;37.758;2023-04-24T14:45:46;6.05;;;2.47;;
75616;SDS011;64200;55.426;37.758;2023-04-24T14:50:47;6.93;;;2.50;;
75616;SDS011;64200;55.426;37.758;2023-04-24T14:55:48;6.55;;;2.85;;
75616;SDS011;64200;55.426;37.758;2023-04-24T15:00:48;4.78;;;3.00;;
75616;SDS011;64200;55.426;37.758;2023-04-24T15:05:54;4.05;;;2.72;;
75616;SDS011;64200;55.426;37.758;2023-04-24T15:10:54;7.25;;;3.13;;
75616;SDS011;64200;55.426;37.758;2023-04-24T15:15:55;7.32;;;3.30;;
75616;SDS011;64200;55.426;37.758;2023-04-24T15:20:56;6.50;;;2.90;;
75616;SDS011;64200;55.426;37.758;2023-04-24T15:25:56;3.20;;;2.35;;
75616;SDS011;64200;55.426;37.758;2023-04-24T15:30:57;5.82;;;2.92;;
75616;SDS011;64200;55.426;37.758;2023-04-24T15:35:58;4.63;;;3.53;;
75616;SDS011;64200;55.426;37.758;2023-04-24T15:40:58;4.63;;;2.80;;
75616;SDS011;64200;55.426;37.758;2023-04-24T15:45:59;5.70;;;2.78;;
75616;SDS011;64200;55.426;37.758;2023-04-24T15:51:00;4.70;;;3.55;;
75616;SDS011;64200;55.426;37.758;2023-04-24T15:56:01;3.30;;;2.78;;
75616;SDS011;64200;55.426;37.758;2023-04-24T16:01:02;5.85;;;3.13;;
75616;SDS011;64200;55.426;37.758;2023-04-24T16:06:02;11.60;;;3.25;;
75616;SDS011;64200;55.426;37.758;2023-04-24T16:11:03;7.07;;;3.22;;
75616;SDS011;64200;55.426;37.758;2023-04-24T16:16:03;9.90;;;4.30;;
75616;SDS011;64200;55.426;37.758;2023-04-24T16:21:04;4.88;;;3.45;;
75616;SDS011;64200;55.426;37.758;2023-04-24T16:26:05;5.47;;;4.18;;
75616;SDS011;64200;55.426;37.758;2023-04-24T16:31:05;6.72;;;3.13;;
75616;SDS011;64200;55.426;37.758;2023-04-24T16:36:06;8.32;;;3.83;;
75616;SDS011;64200;55.426;37.758;2023-04-24T16:41:08;6.35;;;3.70;;
75616;SDS011;64200;55.426;37.758;2023-04-24T16:46:08;7.40;;;3.30;;
75616;SDS011;64200;55.426;37.758;2023-04-24T16:51:09;7.60;;;3.28;;
75616;SDS011;64200;55.426;37.758;2023-04-24T16:56:09;8.60;;;3.45;;
75616;SDS011;64200;55.426;37.758;2023-04-24T17:01:11;6.72;;;3.58;;
75616;SDS011;64200;55.426;37.758;2023-04-24T17:06:11;7.50;;;3.30;;
75616;SDS011;64200;55.426;37.758;2023-04-24T17:11:12;5.70;;;3.30;;
75616;SDS011;64200;55.426;37.758;2023-04-24T17:16:13;3.47;;;2.50;;
75616;SDS011;64200;55.426;37.758;2023-04-24T17:21:13;6.57;;;3.20;;
75616;SDS011;64200;55.426;37.758;2023-04-24T17:26:14;5.85;;;3.00;;
75616;SDS011;64200;55.426;37.758;2023-04-24T17:31:15;7.05;;;3.20;;
75616;SDS011;64200;55.426;37.758;2023-04-24T17:36:15;6.80;;;2.70;;
75616;SDS011;64200;55.426;37.758;2023-04-24T17:41:16;8.55;;;4.10;;
75616;SDS011;64200;55.426;37.758;2023-04-24T17:46:17;6.97;;;2.88;;
75616;SDS011;64200;55.426;37.758;2023-04-24T17:51:17;6.20;;;2.88;;
75616;SDS011;64200;55.426;37.758;2023-04-24T17:56:18;7.80;;;3.80;;
75616;SDS011;64200;55.426;37.758;2023-04-24T18:01:19;7.20;;;3.95;;
75616;SDS011;64200;55.426;37.758;2023-04-24T18:06:19;6.63;;;3.50;;
75616;SDS011;64200;55.426;37.758;2023-04-24T18:11:20;5.43;;;3.20;;
75616;SDS011;64200;55.426;37.758;2023-04-24T18:16:20;6.15;;;3.40;;
75616;SDS011;64200;55.426;37.758;2023-04-24T18:21:21;5.73;;;3.30;;
75616;SDS011;64200;55.426;37.758;2023-04-24T18:26:22;7.60;;;3.60;;
75616;SDS011;64200;55.426;37.758;2023-04-24T18:31:23;7.20;;;3.72;;
75616;SDS011;64200;55.426;37.758;2023-04-24T18:36:24;8.65;;;4.00;;
75616;SDS011;64200;55.426;37.758;2023-04-24T18:41:25;12.57;;;4.68;;
75616;SDS011;64200;55.426;37.758;2023-04-24T18:46:26;8.77;;;4.47;;
75616;SDS011;64200;55.426;37.758;2023-04-24T18:51:26;7.93;;;3.90;;
75616;SDS011;64200;55.426;37.758;2023-04-24T18:56:27;8.57;;;4.20;;
75616;SDS011;64200;55.426;37.758;2023-04-24T19:01:27;7.23;;;4.13;;
75616;SDS011;64200;55.426;37.758;2023-04-24T19:06:28;6.45;;;4.18;;
75616;SDS011;64200;55.426;37.758;2023-04-24T19:11:28;7.63;;;4.55;;
75616;SDS011;64200;55.426;37.758;2023-04-24T19:16:29;7.93;;;4.10;;
75616;SDS011;64200;55.426;37.758;2023-04-24T19:21:30;9.65;;;3.60;;
75616;SDS011;64200;55.426;37.758;2023-04-24T19:26:32;7.18;;;3.50;;
75616;SDS011;64200;55.426;37.758;2023-04-24T19:31:32;2.80;;;2.23;;
75616;SDS011;64200;55.426;37.758;2023-04-24T19:36:33;5.80;;;3.40;;
75616;SDS011;64200;55.426;37.758;2023-04-24T19:41:34;10.18;;;5.53;;
75616;SDS011;64200;55.426;37.758;2023-04-24T19:46:36;7.45;;;4.10;;
75616;SDS011;64200;55.426;37.758;2023-04-24T19:51:38;7.28;;;5.05;;
75616;SDS011;64200;55.426;37.758;2023-04-24T19:56:39;9.20;;;5.23;;
75616;SDS011;64200;55.426;37.758;2023-04-24T20:01:40;6.93;;;4.22;;
75616;SDS011;64200;55.426;37.758;2023-04-24T20:06:42;7.97;;;5.00;;
75616;SDS011;64200;55.426;37.758;2023-04-24T20:11:42;11.10;;;6.60;;
75616;SDS011;64200;55.426;37.758;2023-04-24T20:16:44;10.02;;;6.10;;
75616;SDS011;64200;55.426;37.758;2023-04-24T20:21:45;8.20;;;4.77;;
75616;SDS011;64200;55.426;37.758;2023-04-24T20:26:46;9.90;;;4.78;;
75616;SDS011;64200;55.426;37.758;2023-04-24T20:31:46;11.27;;;5.05;;
75616;SDS011;64200;55.426;37.758;2023-04-24T20:36:47;7.15;;;4.53;;
75616;SDS011;64200;55.426;37.758;2023-04-24T20:41:47;10.65;;;4.90;;
75616;SDS011;64200;55.426;37.758;2023-04-24T20:46:54;8.00;;;4.38;;
75616;SDS011;64200;55.426;37.758;2023-04-24T20:51:55;7.68;;;4.40;;
75616;SDS011;64200;55.426;37.758;2023-04-24T20:56:55;8.50;;;4.60;;
75616;SDS011;64200;55.426;37.758;2023-04-24T21:01:57;8.55;;;4.95;;
75616;SDS011;64200;55.426;37.758;2023-04-24T21:06:57;8.30;;;4.55;;
75616;SDS011;64200;55.426;37.758;2023-04-24T21:11:58;6.35;;;3.53;;
75616;SDS011;64200;55.426;37.758;2023-04-24T21:16:58;5.77;;;3.53;;
75616;SDS011;64200;55.426;37.758;2023-04-24T21:22:00;7.03;;;3.55;;
75616;SDS011;64200;55.426;37.758;2023-04-24T21:27:00;5.63;;;3.87;;
75616;SDS011;64200;55.426;37.758;2023-04-24T21:32:02;7.18;;;3.55;;
75616;SDS011;64200;55.426;37.758;2023-04-24T21:37:02;6.07;;;4.28;;
75616;SDS011;64200;55.426;37.758;2023-04-24T21:42:03;5.22;;;3.58;;
75616;SDS011;64200;55.426;37.758;2023-04-24T21:47:04;6.65;;;3.88;;
75616;SDS011;64200;55.426;37.758;2023-04-24T21:52:04;11.73;;;4.32;;
75616;SDS011;64200;55.426;37.758;2023-04-24T21:57:05;8.97;;;4.60;;
75616;SDS011;64200;55.426;37.758;2023-04-24T22:02:05;9.77;;;4.07;;
75616;SDS011;64200;55.426;37.758;2023-04-24T22:07:06;9.83;;;4.23;;
75616;SDS011;64200;55.426;37.758;2023-04-24T22:12:06;6.65;;;4.13;;
75616;SDS011;64200;55.426;37.758;2023-04-24T22:17:07;8.70;;;4.85;;
75616;SDS011;64200;55.426;37.758;2023-04-24T22:22:09;6.82;;;4.65;;
75616;SDS011;64200;55.426;37.758;2023-04-24T22:27:10;8.60;;;4.47;;
75616;SDS011;64200;55.426;37.758;2023-04-24T22:32:10;9.38;;;5.05;;
75616;SDS011;64200;55.426;37.758;2023-04-24T22:37:11;6.25;;;4.25;;
75616;SDS011;64200;55.426;37.758;2023-04-24T22:42:12;7.00;;;4.07;;
75616;SDS011;64200;55.426;37.758;2023-04-24T22:47:14;8.60;;;4.78;;
75616;SDS011;64200;55.426;37.758;2023-04-24T22:52:16;9.20;;;4.05;;
75616;SDS011;64200;55.426;37.758;2023-04-24T22:57:16;6.73;;;4.40;;
75616;SDS011;64200;55.426;37.758;2023-04-24T23:02:17;5.45;;;4.05;;
75616;SDS011;64200;55.426;37.758;2023-04-24T23:07:17;8.73;;;4.10;;
75616;SDS011;64200;55.426;37.758;2023-04-24T23:12:19;7.00;;;4.68;;
75616;SDS011;64200;55.426;37.758;2023-04-24T23:17:20;9.95;;;4.47;;
75616;SDS011;64200;55.426;37.758;2023-04-24T23:22:21;12.20;;;5.10;;
75616;SDS011;64200;55.426;37.758;2023-04-24T23:27:21;6.95;;;4.15;;
75616;SDS011;64200;55.426;37.758;2023-04-24T23:32:22;9.02;;;5.05;;
75616;SDS011;64200;55.426;37.758;2023-04-24T23:37:22;6.73;;;4.83;;
75616;SDS011;64200;55.426;37.758;2023-04-24T23:42:23;8.75;;;4.95;;
75616;SDS011;64200;55.426;37.758;2023-04-24T23:47:24;8.38;;;4.45;;
75616;SDS011;64200;55.426;37.758;2023-04-24T23:52:24;9.23;;;4.07;;
75616;SDS011;64200;55.426;37.758;2023-04-24T23:57:25;11.52;;;5.60;;
